Laredo International, TX

6:47 AM CST en Febrero 22, 2018 (GMT -0600)
Laredo International | | Change Station

Alt 505 ft 27.54 °N, 99.46 °W | Updated 51 minutes ago

Light Rain
Lluvia débil
46 ° F
Sensación térmica 40 ° F
N
13
Viento Variable Viento desde NO

Hoy
Alta -- | Baja -- ° F
--% Posibilidad de precipitaciones
Ayer
Alta -- | Baja -- ° F
Precip. -- pul
Presión 30.23 pul
Visibilidad 8.0 Millas
Nubes Nublado 600 ft
Vientos helados 40 ° F
Punto de rocío 44 ° F
Humedad 93%
Precipitaciones 0.01 pul
Espesor de la nieve No disponible.
7:08 AM 6:34 PM
Creciente, 41% visible
METAR KLRD 221156Z 32011KT 8SM -RA OVC006 08/07 A3020 RMK AO2 CIG 004V009 SLP237 P0000 60001 70001 T00780067 10094 20078 53003
Presión 30.23 pul
Visibilidad 8.0 Millas
Nubes Nublado 600 ft
Vientos helados 40 ° F
Punto de rocío 44 ° F
Humedad 93%
Precipitaciones 0.01 pul
Espesor de la nieve No disponible.
7:08 AM 6:34 PM
Creciente, 41% visible
METAR KLRD 221156Z 32011KT 8SM -RA OVC006 08/07 A3020 RMK AO2 CIG 004V009 SLP237 P0000 60001 70001 T00780067 10094 20078 53003

Get Severe Weather Alerts

Thanks for signing up!

Be on the lookout for a verification email in your inbox.

You'll start receiving the daily forecast at 6 AM.

×

10-Day Weather Forecast

Almanac

Astronomía

Feb. 22, 2018 Salida Puesta
Hora real
Crepúsculo civil
Crepúsculo náutico
Crepúsculo astronómico
Luna
Horas de luz
Horas de luz
Tomorrow will be .
, % of the Moon is Illuminated

Extremos de hoy

Máximos del estado Bajos del estado

Community

WunderPhotos

Category 6

Welcome to Category 6. This is the collective home for Weather Underground's featured writeups by Dr. Jeff Masters (right), Bob Henson (left), Chris Burt, and other regular contributors.

Nearby

Calidad del aire

  Calidad del aire Índice AQ Contaminante
Not available.

Grosos de nieve

Estación Profundido Altura

Actividad de terremotos

Ciudad Distance Mag. Tiempo y dato
Magnitud mínima muestra es 2,5.

Temperaturas de aguas costeras

Lugar Temperatura

Stations

Estaciones meteorológicas cercanas

Ubicación de la estación Temp. Vientos helados Punto de rocío Humedad Viento Precip. Alt Actualizado Tipo
                   

Watches & Warnings

There are currently no watches in effect.